createdAt,value
2018-03-04T00:01:14.137Z,85.65
2018-03-04T00:03:41.583Z,90.90
2018-03-04T00:06:09.788Z,87.85
2018-03-04T00:08:37.247Z,91.43
2018-03-04T00:11:04.691Z,92.95
2018-03-04T00:13:32.139Z,92.93
2018-03-04T00:15:59.588Z,89.78
2018-03-04T00:18:27.031Z,87.25
2018-03-04T00:20:54.481Z,85.75
2018-03-04T00:23:22.699Z,85.62
2018-03-04T00:25:50.140Z,89.85
2018-03-04T00:28:18.356Z,81.68
2018-03-04T00:30:46.556Z,81.30
2018-03-04T00:33:14.018Z,84.28
2018-03-04T00:35:41.464Z,80.82
2018-03-04T00:38:08.907Z,86.30
2018-03-04T00:40:36.361Z,83.85
2018-03-04T00:43:03.820Z,84.82
2018-03-04T00:45:31.259Z,82.93
2018-03-04T00:47:58.712Z,82.90
2018-03-04T00:50:26.969Z,77.95
2018-03-04T00:52:54.412Z,79.20
2018-03-04T00:55:21.852Z,80.57
2018-03-04T00:57:49.309Z,72.03
2018-03-04T01:00:16.765Z,72.20
2018-03-04T01:02:44.224Z,70.80
2018-03-04T01:05:11.674Z,69.95
2018-03-04T01:07:39.123Z,64.70
2018-03-04T01:10:06.568Z,67.80
2018-03-04T01:12:34.023Z,67.32
2018-03-04T01:15:01.479Z,67.22
2018-03-04T01:17:28.915Z,66.13
2018-03-04T01:19:56.379Z,61.67
2018-03-04T01:22:24.584Z,62.42
2018-03-04T01:24:52.795Z,58.70
2018-03-04T01:27:20.240Z,59.70
2018-03-04T01:29:47.780Z,53.45
2018-03-04T01:32:15.227Z,57.08
2018-03-04T01:34:42.675Z,56.58
2018-03-04T01:37:10.116Z,56.95
2018-03-04T01:39:37.568Z,59.83
2018-03-04T01:42:05.780Z,54.20
2018-03-04T01:44:33.254Z,56.60
2018-03-04T01:47:01.463Z,55.17
2018-03-04T01:49:28.904Z,56.60
2018-03-04T01:51:56.351Z,53.10
2018-03-04T01:54:23.800Z,57.78
2018-03-04T01:56:51.235Z,52.47
2018-03-04T01:59:18.688Z,56.10
2018-03-04T02:01:46.143Z,51.75
2018-03-04T02:04:13.584Z,50.20
2018-03-04T02:06:41.800Z,45.53
2018-03-04T02:09:10.009Z,47.28
2018-03-04T02:11:37.459Z,47.00
2018-03-04T02:14:04.895Z,45.85
2018-03-04T02:16:32.352Z,45.28
2018-03-04T02:18:59.796Z,40.50
2018-03-04T02:21:27.248Z,41.75
2018-03-04T02:23:54.695Z,41.78
2018-03-04T02:26:22.156Z,40.65
2018-03-04T02:28:50.367Z,40.12
2018-03-04T02:31:18.581Z,38.75
2018-03-04T02:33:46.020Z,37.23
2018-03-04T02:36:13.471Z,38.50
2018-03-04T02:38:40.918Z,40.30
2018-03-04T02:41:08.356Z,37.03
2018-03-04T02:43:35.807Z,37.05
2018-03-04T02:46:03.248Z,37.33
2018-03-04T02:48:31.469Z,39.58
2018-03-04T02:50:58.912Z,38.03
2018-03-04T02:53:27.131Z,40.53
2018-03-04T02:55:54.584Z,38.72
2018-03-04T02:58:22.013Z,38.37
2018-03-04T03:00:49.463Z,40.40
2018-03-04T03:03:16.917Z,36.15
2018-03-04T03:05:44.348Z,42.77
2018-03-04T03:08:11.806Z,38.80
2018-03-04T03:10:40.008Z,41.08
2018-03-04T03:13:07.455Z,39.42
2018-03-04T03:15:34.895Z,37.80
2018-03-04T03:18:02.346Z,38.63
2018-03-04T03:20:30.543Z,36.35
2018-03-04T03:22:58.748Z,35.43
2018-03-04T03:25:26.184Z,35.10
2018-03-04T03:27:53.639Z,41.05
2018-03-04T03:30:21.085Z,39.03
2018-03-04T03:32:48.533Z,36.50
2018-03-04T03:35:15.981Z,39.55
2018-03-04T03:37:43.471Z,37.20
2018-03-04T03:40:10.907Z,38.28
2018-03-04T03:42:38.355Z,36.75
2018-03-04T03:45:05.796Z,33.33
2018-03-04T03:47:33.244Z,35.30
2018-03-04T03:50:01.458Z,32.65
2018-03-04T03:52:28.907Z,36.05
2018-03-04T03:54:56.344Z,34.60
2018-03-04T03:57:23.805Z,37.88
2018-03-04T03:59:51.235Z,34.63
2018-03-04T04:02:18.687Z,32.50
2018-03-04T04:04:46.141Z,33.20
2018-03-04T04:07:13.611Z,31.17
2018-03-04T04:09:41.059Z,34.43
2018-03-04T04:12:08.518Z,29.05
2018-03-04T04:14:35.961Z,33.35
2018-03-04T04:17:03.392Z,33.20
2018-03-04T04:19:30.850Z,34.63
2018-03-04T04:21:58.288Z,36.17
2018-03-04T04:24:26.506Z,39.97
2018-03-04T04:26:53.953Z,37.35
2018-03-04T04:29:22.168Z,37.45
2018-03-04T04:31:49.630Z,33.33
2018-03-04T04:34:17.056Z,34.03
2018-03-04T04:36:44.520Z,39.03
2018-03-04T04:39:11.963Z,30.77
2018-03-04T04:41:39.412Z,33.65
2018-03-04T04:44:06.857Z,35.08
2018-03-04T04:46:34.297Z,34.05
2018-03-04T04:49:01.748Z,33.80
2018-03-04T04:51:29.193Z,33.22
2018-03-04T04:53:57.463Z,35.53
2018-03-04T04:56:24.877Z,33.15
2018-03-04T04:58:52.334Z,36.55
2018-03-04T05:01:19.772Z,37.78
2018-03-04T05:03:47.221Z,43.08
2018-03-04T05:06:14.665Z,41.80
2018-03-04T05:08:42.127Z,44.63
2018-03-04T05:11:09.576Z,43.08
2018-03-04T05:13:37.033Z,40.53
2018-03-04T05:16:05.248Z,41.33
2018-03-04T05:18:32.700Z,38.75
2018-03-04T05:21:00.911Z,46.10
2018-03-04T05:23:28.363Z,47.03
2018-03-04T05:25:55.802Z,55.87
2018-03-04T05:28:23.259Z,50.90
2018-03-04T05:30:50.709Z,49.50
2018-03-04T05:33:18.172Z,52.33
2018-03-04T05:35:45.613Z,50.85
2018-03-04T05:38:13.068Z,41.65
2018-03-04T05:40:41.272Z,41.92
2018-03-04T05:43:09.489Z,47.88
2018-03-04T05:45:36.928Z,49.28
2018-03-04T05:48:04.372Z,45.45
2018-03-04T05:50:31.820Z,39.10
2018-03-04T05:52:59.267Z,45.30
2018-03-04T05:55:26.811Z,44.57
2018-03-04T05:57:54.267Z,40.47
2018-03-04T06:00:21.716Z,48.97
2018-03-04T06:02:49.933Z,47.78
2018-03-04T06:05:18.139Z,49.75
2018-03-04T06:07:46.408Z,47.92
2018-03-04T06:10:14.636Z,75.12
2018-03-04T06:12:42.072Z,67.82
2018-03-04T06:15:09.524Z,66.30
2018-03-04T06:17:36.960Z,59.35
2018-03-04T06:20:05.180Z,112.05
2018-03-04T06:22:32.620Z,60.80
2018-03-04T06:25:00.077Z,56.65
2018-03-04T06:27:27.525Z,48.95
2018-03-04T06:29:54.994Z,42.00
2018-03-04T06:32:23.219Z,46.03
2018-03-04T06:34:50.672Z,64.25
2018-03-04T06:37:18.868Z,66.32
2018-03-04T06:39:47.089Z,67.68
2018-03-04T06:42:14.539Z,61.30
2018-03-04T06:44:42.752Z,61.75
2018-03-04T06:47:10.965Z,61.58
2018-03-04T06:49:38.404Z,68.20
2018-03-04T06:52:05.847Z,71.05
2018-03-04T06:54:33.295Z,70.45
2018-03-04T06:57:01.504Z,76.00
2018-03-04T06:59:28.971Z,57.88
2018-03-04T07:01:57.185Z,53.00
2018-03-04T07:04:24.628Z,54.95
2018-03-04T07:06:52.083Z,61.72
2018-03-04T07:09:19.524Z,66.00
2018-03-04T07:11:46.967Z,62.50
2018-03-04T07:14:14.423Z,56.00
2018-03-04T07:16:41.868Z,59.53
2018-03-04T07:19:09.316Z,61.70
2018-03-04T07:21:37.532Z,49.22
2018-03-04T07:24:05.753Z,49.45
2018-03-04T07:26:33.195Z,48.17
2018-03-04T07:29:01.404Z,48.63
2018-03-04T07:31:29.606Z,44.97
2018-03-04T07:33:57.059Z,53.17
2018-03-04T07:36:24.508Z,56.83
2018-03-04T07:38:51.951Z,54.45
2018-03-04T07:41:19.395Z,47.30
2018-03-04T07:43:46.828Z,48.20
2018-03-04T07:46:14.283Z,44.40
2018-03-04T07:48:42.500Z,41.80
2018-03-04T07:51:09.948Z,39.70
2018-03-04T07:53:37.548Z,41.60
2018-03-04T07:56:05.776Z,38.80
2018-03-04T07:58:33.260Z,37.85
2018-03-04T08:01:00.723Z,37.08
2018-03-04T08:03:28.168Z,36.30
2018-03-04T08:05:55.611Z,37.43
2018-03-04T08:08:23.057Z,35.22
2018-03-04T08:10:50.512Z,39.05
2018-03-04T08:13:17.956Z,37.40
2018-03-04T08:15:45.415Z,39.38
2018-03-04T08:18:12.852Z,39.78
2018-03-04T08:20:40.315Z,37.97
2018-03-04T08:23:07.755Z,44.55
2018-03-04T08:25:36.121Z,38.80
2018-03-04T08:28:15.343Z,41.47
2018-03-04T08:30:42.788Z,45.92
2018-03-04T08:33:10.247Z,52.50
2018-03-04T08:35:38.455Z,58.80
2018-03-04T08:38:06.667Z,55.78
2018-03-04T08:40:34.171Z,55.78
2018-03-04T08:43:01.608Z,53.37
2018-03-04T08:45:29.846Z,50.92
2018-03-04T08:47:57.280Z,45.12
2018-03-04T08:50:24.727Z,42.78
2018-03-04T08:52:52.182Z,38.20
2018-03-04T08:55:19.634Z,41.00
2018-03-04T08:57:47.839Z,39.53
2018-03-04T09:00:16.049Z,41.33
2018-03-04T09:02:43.555Z,38.33
2018-03-04T09:05:11.781Z,38.10
2018-03-04T09:07:39.223Z,39.90
2018-03-04T09:10:06.681Z,41.10
2018-03-04T09:12:34.115Z,39.85
2018-03-04T09:15:01.564Z,41.50
2018-03-04T09:17:29.015Z,43.28
2018-03-04T09:19:57.233Z,40.58
2018-03-04T09:22:24.671Z,44.15
2018-03-04T09:24:52.121Z,47.47
2018-03-04T09:27:19.595Z,44.20
2018-03-04T09:29:47.037Z,43.78
2018-03-04T09:32:15.252Z,46.78
2018-03-04T09:34:42.759Z,45.97
2018-03-04T09:37:10.215Z,47.28
2018-03-04T09:39:37.661Z,47.75
2018-03-04T09:42:05.109Z,50.58
2018-03-04T09:44:32.548Z,54.00
2018-03-04T09:47:00.012Z,54.05
2018-03-04T09:49:28.223Z,54.42
2018-03-04T09:51:56.436Z,52.75
2018-03-04T09:54:23.875Z,54.30
2018-03-04T09:56:51.339Z,52.90
2018-03-04T09:59:18.783Z,53.03
2018-03-04T10:01:46.233Z,49.97
2018-03-04T10:04:14.449Z,47.58
2018-03-04T10:06:41.910Z,46.58
2018-03-04T10:09:10.119Z,46.17
2018-03-04T10:11:37.580Z,44.55
2018-03-04T10:14:05.797Z,45.85
2018-03-04T10:16:34.027Z,48.13
2018-03-04T10:19:01.467Z,50.50
2018-03-04T10:21:29.679Z,43.90
2018-03-04T10:23:57.895Z,43.47
2018-03-04T10:26:26.103Z,46.22
2018-03-04T10:28:53.543Z,46.30
2018-03-04T10:31:21.752Z,45.50
2018-03-04T10:33:49.961Z,45.53
2018-03-04T10:36:17.405Z,40.83
2018-03-04T10:38:44.839Z,35.40
2018-03-04T10:41:12.303Z,35.47
2018-03-04T10:43:39.748Z,42.80
2018-03-04T10:46:07.195Z,44.22
2018-03-04T10:48:34.628Z,43.93
2018-03-04T10:51:02.840Z,46.53
2018-03-04T10:53:30.343Z,44.42
2018-03-04T10:55:57.788Z,44.85
2018-03-04T10:58:25.992Z,46.33
2018-03-04T11:00:55.011Z,45.00
2018-03-04T11:03:22.451Z,45.17
2018-03-04T11:05:49.907Z,47.45
2018-03-04T11:08:17.351Z,46.47
2018-03-04T11:10:45.564Z,46.10
2018-03-04T11:13:13.001Z,45.45
2018-03-04T11:15:40.432Z,48.33
2018-03-04T11:18:07.884Z,48.17
2018-03-04T11:20:36.087Z,46.83
2018-03-04T11:23:04.295Z,45.65
2018-03-04T11:25:31.743Z,45.10
2018-03-04T11:27:59.187Z,46.88
2018-03-04T11:30:26.637Z,44.30
2018-03-04T11:32:54.091Z,43.40
2018-03-04T11:35:21.531Z,41.10
2018-03-04T11:37:48.971Z,40.53
2018-03-04T11:40:17.169Z,39.40
2018-03-04T11:42:45.375Z,38.75
2018-03-04T11:45:12.819Z,35.83
2018-03-04T11:47:40.268Z,34.50
2018-03-04T11:50:07.704Z,33.37
2018-03-04T11:52:35.920Z,30.65
2018-03-04T11:55:03.372Z,28.30
2018-03-04T11:57:31.583Z,26.58
2018-03-04T11:59:59.016Z,26.42
2018-03-04T12:02:26.471Z,24.70
2018-03-04T12:04:53.920Z,24.80
2018-03-04T12:07:22.155Z,24.95
2018-03-04T12:09:49.628Z,23.25
2018-03-04T12:12:17.075Z,24.63
2018-03-04T12:14:45.287Z,22.62
2018-03-04T12:17:13.496Z,23.42
2018-03-04T12:19:40.935Z,23.30
2018-03-04T12:22:09.879Z,21.47
2018-03-04T12:24:37.324Z,21.12
2018-03-04T12:27:04.768Z,21.23
2018-03-04T12:29:32.208Z,20.95
2018-03-04T12:31:59.648Z,19.80
2018-03-04T12:34:27.096Z,20.00
2018-03-04T12:36:54.540Z,20.00
2018-03-04T12:39:21.988Z,16.48
2018-03-04T12:41:49.427Z,17.30
2018-03-04T12:44:17.667Z,15.90
2018-03-04T12:46:45.103Z,15.90
2018-03-04T12:49:13.315Z,17.75
2018-03-04T12:51:40.764Z,17.08
2018-03-04T12:54:08.217Z,15.85
2018-03-04T12:56:35.648Z,17.43
2018-03-04T12:59:03.856Z,16.02
2018-03-04T13:01:31.300Z,13.70
2018-03-04T13:03:58.748Z,15.80
2018-03-04T13:06:26.179Z,14.48
2018-03-04T13:08:54.391Z,14.70
2018-03-04T13:11:21.837Z,15.18
2018-03-04T13:13:49.296Z,15.02
2018-03-04T13:16:16.735Z,16.65
2018-03-04T13:18:44.182Z,16.60
2018-03-04T13:21:11.627Z,19.05
2018-03-04T13:23:39.083Z,18.67
2018-03-04T13:26:07.282Z,20.90
2018-03-04T13:28:34.716Z,23.50
2018-03-04T13:31:02.169Z,24.77
2018-03-04T13:33:29.604Z,21.60
2018-03-04T13:35:57.812Z,20.17
2018-03-04T13:38:26.015Z,17.10
2018-03-04T13:40:53.456Z,14.53
2018-03-04T13:43:20.891Z,12.17
2018-03-04T13:45:48.336Z,11.80
2018-03-04T13:50:43.540Z,14.57
2018-03-04T13:53:10.976Z,14.20
2018-03-04T14:02:59.384Z,12.10
2018-03-04T14:05:27.599Z,12.20
2018-03-04T14:07:55.035Z,12.23
2018-03-04T14:34:54.784Z,11.20
2018-03-04T14:37:22.997Z,11.20
2018-03-04T15:04:21.115Z,13.10
2018-03-04T15:06:48.555Z,11.77
2018-03-04T15:09:16.764Z,11.20
2018-03-04T15:11:44.975Z,10.70
2018-03-04T15:14:12.462Z,11.57
2018-03-04T15:16:40.659Z,11.17
2018-03-04T15:19:08.092Z,12.10
2018-03-04T15:21:35.645Z,12.87
2018-03-04T15:24:03.081Z,11.50
2018-03-04T16:10:40.973Z,12.80
2018-03-04T16:13:08.419Z,13.47
2018-03-04T16:15:36.619Z,14.13
2018-03-04T16:18:04.137Z,13.73
2018-03-04T16:20:31.564Z,14.00
2018-03-04T16:22:59.777Z,15.97
2018-03-04T16:25:27.984Z,15.30
2018-03-04T16:27:55.412Z,15.93
2018-03-04T16:30:22.887Z,16.40
2018-03-04T16:32:50.324Z,15.57
2018-03-04T16:40:11.764Z,18.20
2018-03-04T16:42:39.216Z,15.30
2018-03-04T16:59:50.923Z,19.83
2018-03-04T17:02:18.387Z,25.52
2018-03-04T17:04:45.824Z,26.25
2018-03-04T17:07:14.032Z,22.03
2018-03-04T17:09:41.467Z,23.93
2018-03-04T17:12:08.912Z,23.70
2018-03-04T17:14:36.359Z,29.20
2018-03-04T17:17:04.572Z,29.12
2018-03-04T17:19:32.016Z,29.52
2018-03-04T17:21:59.455Z,27.07
2018-03-04T17:24:26.897Z,25.83
2018-03-04T17:26:55.136Z,28.20
2018-03-04T17:29:22.569Z,29.98
2018-03-04T17:31:50.012Z,29.30
2018-03-04T17:34:17.460Z,27.37
2018-03-04T17:51:28.394Z,26.10
2018-03-04T17:53:55.839Z,33.80
2018-03-04T17:56:23.293Z,34.40
2018-03-04T17:58:50.725Z,33.80
2018-03-04T18:01:18.184Z,33.45
2018-03-04T18:03:45.628Z,34.65
2018-03-04T18:06:13.072Z,33.38
2018-03-04T18:38:07.497Z,27.23
2018-03-04T18:40:34.948Z,34.60
2018-03-04T18:43:03.170Z,38.45
2018-03-04T18:45:30.608Z,37.03
2018-03-04T18:47:58.052Z,30.03
2018-03-04T18:50:25.496Z,33.75
2018-03-04T18:52:52.947Z,35.03
2018-03-04T18:55:21.156Z,36.63
2018-03-04T18:57:49.372Z,33.70
2018-03-04T19:00:16.852Z,34.90
2018-03-04T19:02:44.356Z,33.33
2018-03-04T19:05:11.804Z,36.38
2018-03-04T19:07:40.033Z,34.00
2018-03-04T19:10:07.463Z,35.13
2018-03-04T19:12:34.903Z,39.43
2018-03-04T19:15:02.353Z,38.03
2018-03-04T19:17:29.796Z,36.05
2018-03-04T19:19:57.235Z,36.95
2018-03-04T19:22:24.720Z,40.83
2018-03-04T19:24:52.159Z,41.67
2018-03-04T19:27:20.368Z,39.25
2018-03-04T19:29:48.568Z,39.08
2018-03-04T19:32:16.845Z,39.33
2018-03-04T19:34:44.270Z,39.75
2018-03-04T19:37:11.715Z,38.10
2018-03-04T19:39:39.928Z,39.50
2018-03-04T19:42:07.435Z,38.72
2018-03-04T19:44:34.872Z,36.42
2018-03-04T19:47:03.116Z,36.75
2018-03-04T19:49:30.604Z,36.42
2018-03-04T19:51:58.075Z,34.80
2018-03-04T19:54:25.520Z,33.28
2018-03-04T19:56:53.783Z,34.58
2018-03-04T19:59:21.237Z,31.90
2018-03-04T20:01:48.684Z,33.45
2018-03-04T20:04:16.926Z,34.15
2018-03-04T20:06:44.361Z,35.15
2018-03-04T20:09:12.580Z,32.83
2018-03-04T20:11:40.015Z,33.30
2018-03-04T20:14:07.450Z,33.13
2018-03-04T20:16:34.895Z,33.45
2018-03-04T20:19:03.106Z,32.65
2018-03-04T20:21:31.320Z,33.30
2018-03-04T20:23:58.756Z,34.72
2018-03-04T20:26:26.266Z,36.60
2018-03-04T20:28:53.640Z,37.13
2018-03-04T20:31:21.861Z,35.80
2018-03-04T20:33:49.300Z,33.17
2018-03-04T20:36:16.748Z,38.33
2018-03-04T20:38:44.193Z,34.15
2018-03-04T20:41:11.636Z,34.33
2018-03-04T20:43:39.068Z,36.97
2018-03-04T20:46:06.525Z,37.85
2018-03-04T20:48:34.726Z,37.80
2018-03-04T20:51:02.939Z,36.90
2018-03-04T20:53:30.384Z,38.60
2018-03-04T20:55:57.832Z,37.58
2018-03-04T20:58:25.275Z,38.90
2018-03-04T21:00:52.720Z,37.15
2018-03-04T21:03:20.157Z,36.95
2018-03-04T21:05:47.599Z,36.13
2018-03-04T21:08:15.812Z,33.42
2018-03-04T21:10:43.251Z,36.42
2018-03-04T21:13:10.726Z,36.50
2018-03-04T21:15:38.172Z,33.78
2018-03-04T21:18:05.623Z,34.80
2018-03-04T21:20:33.826Z,33.70
2018-03-04T21:23:02.041Z,34.63
2018-03-04T21:25:29.467Z,31.12
2018-03-04T21:27:56.912Z,31.37
2018-03-04T21:30:24.347Z,32.63
2018-03-04T21:32:52.560Z,33.78
2018-03-04T21:35:20.767Z,37.00
2018-03-04T21:37:48.220Z,34.83
2018-03-04T21:40:15.655Z,34.15
2018-03-04T21:42:43.099Z,35.70
2018-03-04T21:45:11.312Z,36.05
2018-03-04T21:47:39.732Z,34.47
2018-03-04T21:50:07.168Z,35.70
2018-03-04T21:52:35.383Z,35.40
2018-03-04T21:55:03.596Z,38.03
2018-03-04T21:57:31.087Z,40.63
2018-03-04T21:59:58.528Z,38.07
2018-03-04T22:02:26.740Z,34.85
2018-03-04T22:04:54.952Z,34.65
2018-03-04T22:07:22.395Z,34.97
2018-03-04T22:09:49.831Z,33.07
2018-03-04T22:12:17.288Z,29.00
2018-03-04T22:14:44.734Z,32.83
2018-03-04T22:17:12.155Z,33.90
2018-03-04T22:19:39.617Z,35.30
2018-03-04T22:22:07.844Z,33.38
2018-03-04T22:24:35.287Z,37.78
2018-03-04T22:27:03.489Z,37.40
2018-03-04T22:29:31.699Z,37.38
2018-03-04T22:31:59.139Z,35.22
2018-03-04T22:34:26.583Z,37.67
2018-03-04T22:36:54.068Z,37.95
2018-03-04T22:39:21.511Z,34.95
2018-03-04T22:41:49.754Z,36.83
2018-03-04T22:44:17.200Z,36.37
2018-03-04T22:46:45.412Z,34.45
2018-03-04T22:49:12.860Z,34.83
2018-03-04T22:51:40.301Z,36.40
2018-03-04T22:54:07.758Z,31.90
2018-03-04T22:56:35.209Z,37.53
2018-03-04T22:59:03.420Z,36.60
2018-03-04T23:01:30.855Z,33.30
2018-03-04T23:03:58.307Z,35.83
2018-03-04T23:06:25.746Z,37.30
2018-03-04T23:08:53.957Z,36.83
2018-03-04T23:11:22.160Z,44.63
2018-03-04T23:13:49.623Z,45.55
2018-03-04T23:16:17.884Z,40.40
2018-03-04T23:18:47.740Z,40.30
2018-03-04T23:21:15.175Z,40.25
2018-03-04T23:23:42.620Z,39.08
2018-03-04T23:26:10.832Z,35.60
2018-03-04T23:28:38.321Z,33.35
2018-03-04T23:31:05.720Z,34.28
2018-03-04T23:33:33.188Z,38.67
2018-03-04T23:36:00.624Z,41.10
2018-03-04T23:38:28.069Z,36.30
2018-03-04T23:40:55.504Z,37.80
2018-03-04T23:43:23.724Z,37.67
2018-03-04T23:45:51.160Z,35.72
2018-03-04T23:48:18.612Z,36.20
2018-03-04T23:50:46.052Z,35.75
2018-03-04T23:53:13.572Z,36.10
2018-03-04T23:55:41.025Z,35.63
2018-03-04T23:58:08.467Z,35.90
